Julien Grumetz

Julien Grumetz

Statistiques 2026

  • Courses courues : 6
  • Nb de victoires : -
  • Nb de places : -
  • Écart gagnant : 37
  • Réussite à la gagne : -
  • Réussite à la place : -
Musique : Da Da 6a 8a 4a Da (25) Da 5a 8a 5a 9a 7a 8a 5a 5a 6a 8a 9a
DateRangCatégorieAlloc.Dist.HippodromeChevalRed. KmSpé.
01/01/08 7 Trot 44 000€ 2 175m Vincennes Next Haufor 1'14"7 Monté
01/01/08 9 Trot 32 000€ 2 200m Vincennes Oria du Tarn 1'18"2 Monté
02/01/08 5 Trot 65 000€ 2 850m Vincennes Malakite 1'15"4 Monté
18/01/08 0 Trot 42 000€ 2 700m Vincennes Next Haufor Monté
03/02/08 1 Trot 70 000€ 2 850m Vincennes Malakite 1'14"2 Monté
10/02/08 8 Trot 14 000€ 2 250m Mauquenchy Opera de Gourel 1'17"5 Monté
18/02/08 7 Trot 70 000€ 2 850m Vincennes Matador de Vrie 1'15"8 Monté
25/02/08 5 Trot 13 000€ 2 775m Le Croise Laroche Pelina Royale 1'18"5 Monté
27/02/08 D Trot 45 000€ 2 875m Enghien Soisy Leader Pellois Monté
28/02/08 D Trot 22 000€ 2 000m Le Croise Laroche Quartz du Chene Monté
05/03/08 7 Trot 20 000€ 2 400m Amiens Ondine du Withof 1'19"9 Monté
09/03/08 6 Trot 11 000€ 2 800m Chartres Pedrito Jihaime 1'19"7 Monté
11/03/08 D Trot 26 000€ 2 450m Caen Leader Pellois Monté
17/03/08 3 Trot 12 000€ 2 775m Le Croise Laroche Quinine de Nacre 1'19"1 Monté
18/03/08 D Trot 41 000€ 2 850m Vincennes Niglet des Cinty Monté
24/03/08 5 Trot 16 000€ 2 900m Amiens Narvick du Vivier 1'18"7 Monté
25/03/08 5 Trot 41 000€ 2 850m Vincennes Origa Vici 1'16"0 Monté
30/03/08 D Trot 21 000€ 2 850m Mauquenchy Philidelphis Monté
03/04/08 5 Trot 20 000€ 2 000m La Capelle Quina de Vive 1'17"0 Monté
03/04/08 4 Trot 23 000€ 2 775m La Capelle Max Galbe 1'16"8 Monté
06/04/08 D Trot 12 000€ 2 500m Bihorel Les Rouens Pegase d'Anama Monté
07/04/08 8 Trot 14 000€ 2 775m Le Croise Laroche Pedrito Jihaime 1'19"7 Monté
12/04/08 D Trot 55 000€ 2 850m Vincennes Kaline d'Anjou Monté
13/04/08 D Trot 10 000€ 2 725m Evreux Nautilus Monté
21/04/08 D Trot 21 000€ 2 000m Le Croise Laroche Quina de Vive Monté
26/04/08 0 Trot 13 000€ 2 400m Amiens Pelina Royale Monté
27/04/08 8 Trot 12 000€ 2 750m Elbeuf Margay des Salines Monté
28/04/08 2 Trot 33 000€ 2 250m Enghien Soisy Quina de Vive 1'17"2 Monté
28/04/08 3 Trot 13 000€ 2 000m Le Croise Laroche Ramses de Vaudon 1'21"4 Monté
01/05/08 0 Trot 13 000€ 2 850m Laon Napolitano Monté
04/05/08 D Trot 9 000€ 2 500m Bihorel Les Rouens Quoriolo Monté
05/05/08 D Trot 14 000€ 2 775m Le Croise Laroche Pedrito Jihaime Monté
11/05/08 9 Trot 11 000€ 2 600m Le Touquet Opera de Gourel Monté
12/05/08 2 Trot 13 000€ 2 525m Gournay En Bray Nicos d'And Monté
18/05/08 5 Trot 12 000€ 3 150m Abbeville Norton Erem Monté
18/05/08 6 Trot 11 000€ 2 325m Abbeville Paul Account Attelé
21/05/08 9 Trot 26 000€ 2 800m Le Croise Laroche Keos du Touquet 1'17"9 Monté
21/05/08 1 Trot 20 000€ 2 000m Le Croise Laroche Prince du Soleil 1'15"1 Monté
24/05/08 0 Trot 55 000€ 2 250m Enghien Soisy Lear Fan Monté
25/05/08 1 Trot 13 000€ 2 000m La Capelle Quinine de Nacre 1'16"0 Monté
30/05/08 D Trot 33 000€ 2 200m Vincennes Quimi de Bertrange Monté
31/05/08 D Trot 15 000€ 2 600m Reims Paladin Royal Monté
01/06/08 1 Trot 15 000€ 3 175m Abbeville Narvick du Vivier Monté
05/06/08 5 Trot 20 000€ 2 450m Caen Prince du Soleil 1'15"2 Monté lire

Longtemps au sein du peloton a terminé correctement.

06/06/08 3 Trot 45 000€ 2 700m Vincennes Max Galbe 1'15"5 Monté lire

A longuement attendu avant de très bien terminer.

07/06/08 2 Trot 45 000€ 2 700m Vincennes Nussadua 1'14"9 Monté lire

A attendu en retrait avant de finir à toute allure au centre.

08/06/08 3 Trot 13 000€ 2 525m Les Andelys Narvick du Vivier Monté
18/06/08 8 Trot 26 000€ 2 600m Reims Keos du Touquet 1'15"7 Monté lire

N'a jamais eu l'ombre d'une chance.

21/06/08 1 Trot 64 000€ 2 875m Enghien Soisy Lou Petiot 1'16"2 Monté lire

Longuement attentiste, est venu enlever la décision dans les dernières battues.

21/06/08 2 Trot 32 000€ 2 875m Enghien Soisy Quottie de Cambron 1'17"6 Monté lire

Jamais très loin, a fait bonne figure jusqu'au bout.